Time;durP1;ratioP1;P1;durP2;ratioP2;P2;SDS_P1;SDS_P2;PMS_P1;PMS_P2;Temp;Humidity;BMP_temperature;BMP_pressure;BME280_temperature;BME280_humidity;BME280_pressure;Samples;Min_cycle;Max_cycle;Signal;HPM_P1;HPM_P2
2022/03/26 00:03:10;;;;;;;13.07;10.18;;;;;;;;;;10186667;28;20089;-57
2022/03/26 00:08:08;;;;;;;17.35;11.27;;;;;;;;;;10187034;28;20322;-58
2022/03/26 00:13:08;;;;;;;14.13;10.85;;;;;;;;;;10191739;28;20081;-57
2022/03/26 00:18:07;;;;;;;13.20;10.57;;;;;;;;;;10191851;28;20104;-58
2022/03/26 00:23:05;;;;;;;24.83;15.05;;;;;;;;;;10186608;28;20077;-59
2022/03/26 00:28:03;;;;;;;15.70;12.50;;;;;;;;;;10187787;28;20070;-58
2022/03/26 00:33:05;;;;;;;17.70;12.80;;;;;;;;;;10191353;28;20077;-58
2022/03/26 00:38:04;;;;;;;14.93;11.88;;;;;;;;;;10191260;28;20045;-58
2022/03/26 00:43:02;;;;;;;14.45;10.88;;;;;;;;;;10195398;28;20046;-57
2022/03/26 00:48:00;;;;;;;15.23;12.45;;;;;;;;;;10195364;28;20104;-59
2022/03/26 00:53:00;;;;;;;12.45;10.60;;;;;;;;;;10192242;28;20070;-57
2022/03/26 00:57:58;;;;;;;12.40;10.45;;;;;;;;;;10198590;28;20076;-58
2022/03/26 01:02:57;;;;;;;14.77;11.23;;;;;;;;;;10198015;28;20084;-58
2022/03/26 01:07:56;;;;;;;13.77;10.85;;;;;;;;;;10193515;28;20092;-58
2022/03/26 01:12:55;;;;;;;17.77;13.13;;;;;;;;;;10191908;28;20077;-58
2022/03/26 01:17:54;;;;;;;15.90;12.20;;;;;;;;;;10193124;28;20084;-58
2022/03/26 01:22:52;;;;;;;16.10;11.93;;;;;;;;;;10184691;28;20073;-58
2022/03/26 01:27:50;;;;;;;22.15;14.90;;;;;;;;;;10192785;28;20077;-56
2022/03/26 01:32:50;;;;;;;14.10;12.18;;;;;;;;;;10192863;28;20127;-58
2022/03/26 01:37:49;;;;;;;16.05;12.98;;;;;;;;;;10192486;28;20069;-59
2022/03/26 01:42:47;;;;;;;22.60;16.95;;;;;;;;;;10193450;28;20076;-57
2022/03/26 01:47:46;;;;;;;40.67;28.38;;;;;;;;;;10195930;28;20054;-57
2022/03/26 01:52:45;;;;;;;23.92;18.13;;;;;;;;;;10195161;28;20081;-57
2022/03/26 01:57:44;;;;;;;20.65;17.35;;;;;;;;;;10196176;28;20439;-58
2022/03/26 02:02:43;;;;;;;19.00;13.63;;;;;;;;;;10192432;28;20081;-58
2022/03/26 02:07:43;;;;;;;16.77;11.98;;;;;;;;;;10191132;28;20062;-58
2022/03/26 02:12:43;;;;;;;16.35;12.55;;;;;;;;;;10191108;28;20092;-58
2022/03/26 02:17:41;;;;;;;23.63;15.02;;;;;;;;;;10190740;28;20081;-58
2022/03/26 02:22:41;;;;;;;21.50;13.38;;;;;;;;;;10191270;28;20104;-58
2022/03/26 02:27:40;;;;;;;28.38;16.50;;;;;;;;;;10190998;28;20088;-59
2022/03/26 02:32:38;;;;;;;19.35;13.02;;;;;;;;;;10190908;28;20101;-57
2022/03/26 02:37:36;;;;;;;12.27;10.98;;;;;;;;;;10190200;28;20511;-58
2022/03/26 02:42:36;;;;;;;16.70;11.18;;;;;;;;;;10190324;28;20500;-57
2022/03/26 02:47:35;;;;;;;17.58;10.85;;;;;;;;;;10188918;28;20520;-57
2022/03/26 02:52:33;;;;;;;14.88;10.93;;;;;;;;;;10187609;28;20503;-59
2022/03/26 02:57:31;;;;;;;13.10;10.68;;;;;;;;;;10187104;28;20096;-58
2022/03/26 03:02:31;;;;;;;14.95;12.20;;;;;;;;;;10189632;28;20089;-58
2022/03/26 03:07:30;;;;;;;14.13;11.10;;;;;;;;;;10189695;28;20108;-56
2022/03/26 03:12:28;;;;;;;14.90;11.63;;;;;;;;;;10188975;28;20542;-58
2022/03/26 03:17:37;;;;;;;14.90;12.70;;;;;;;;;;10185565;28;20080;-58
2022/03/26 03:22:35;;;;;;;17.80;12.25;;;;;;;;;;10202168;28;20427;-58
2022/03/26 03:27:34;;;;;;;18.27;12.57;;;;;;;;;;10187168;28;20100;-58
2022/03/26 03:32:32;;;;;;;16.67;12.52;;;;;;;;;;10187651;28;20073;-58
2022/03/26 03:37:34;;;;;;;13.60;11.10;;;;;;;;;;10187957;28;20069;-58
2022/03/26 03:42:33;;;;;;;13.80;11.73;;;;;;;;;;10185542;28;20484;-58
2022/03/26 03:47:31;;;;;;;15.35;12.55;;;;;;;;;;10186161;28;20550;-58
2022/03/26 03:52:30;;;;;;;15.35;12.60;;;;;;;;;;10187985;28;20084;-59
2022/03/26 03:57:29;;;;;;;16.42;12.40;;;;;;;;;;10188068;28;20073;-57
2022/03/26 04:02:29;;;;;;;14.23;11.85;;;;;;;;;;10186238;28;20097;-59
2022/03/26 04:07:27;;;;;;;15.70;12.60;;;;;;;;;;10185900;28;20080;-60
2022/03/26 04:12:26;;;;;;;19.38;12.25;;;;;;;;;;10187934;28;20084;-58
2022/03/26 04:17:25;;;;;;;15.57;12.98;;;;;;;;;;10190447;28;20073;-58
2022/03/26 04:22:23;;;;;;;16.08;13.75;;;;;;;;;;10195157;28;20467;-58
2022/03/26 04:27:22;;;;;;;17.35;11.90;;;;;;;;;;10196007;28;20122;-58
2022/03/26 04:32:21;;;;;;;14.50;12.35;;;;;;;;;;10199026;28;20632;-58
2022/03/26 04:37:21;;;;;;;17.70;11.95;;;;;;;;;;10198786;28;20562;-59
2022/03/26 04:42:19;;;;;;;15.10;12.25;;;;;;;;;;10193725;28;20076;-59
2022/03/26 04:47:18;;;;;;;15.60;12.00;;;;;;;;;;10194725;28;20280;-58
2022/03/26 04:52:16;;;;;;;14.77;11.43;;;;;;;;;;10192212;28;20064;-59
2022/03/26 04:57:17;;;;;;;16.27;11.38;;;;;;;;;;10192393;28;20538;-58
2022/03/26 05:02:16;;;;;;;15.02;12.73;;;;;;;;;;10194047;28;20089;-58
2022/03/26 05:12:31;;;;;;;16.80;13.25;;;;;;;;;;10193456;28;20120;-58
2022/03/26 05:17:29;;;;;;;15.55;11.75;;;;;;;;;;10192186;28;20565;-59
2022/03/26 05:22:28;;;;;;;15.45;12.32;;;;;;;;;;10191842;28;20096;-58
2022/03/26 05:27:26;;;;;;;17.33;12.65;;;;;;;;;;10189493;28;20499;-59
2022/03/26 05:32:26;;;;;;;16.30;12.75;;;;;;;;;;10189847;28;20085;-58
2022/03/26 05:37:24;;;;;;;19.65;12.60;;;;;;;;;;10188363;28;20483;-58
2022/03/26 05:42:23;;;;;;;17.52;12.07;;;;;;;;;;10187767;28;20082;-59
2022/03/26 05:47:23;;;;;;;15.68;13.23;;;;;;;;;;10188090;28;20533;-59
2022/03/26 05:52:23;;;;;;;18.40;11.88;;;;;;;;;;10192436;28;20495;-59
2022/03/26 05:57:21;;;;;;;15.63;11.98;;;;;;;;;;10187663;28;20077;-58
2022/03/26 06:02:21;;;;;;;18.98;12.63;;;;;;;;;;10187245;28;20201;-59
2022/03/26 06:07:19;;;;;;;36.25;23.55;;;;;;;;;;10190275;28;20082;-60
2022/03/26 06:12:19;;;;;;;23.88;15.27;;;;;;;;;;10191066;28;20054;-58
2022/03/26 06:17:18;;;;;;;14.55;13.02;;;;;;;;;;10188897;28;20372;-59
2022/03/26 06:22:16;;;;;;;18.98;14.75;;;;;;;;;;10186422;28;20081;-58
2022/03/26 06:27:15;;;;;;;20.05;13.38;;;;;;;;;;10187717;28;20519;-57
2022/03/26 06:32:15;;;;;;;14.07;11.82;;;;;;;;;;10188614;28;20062;-59
2022/03/26 06:37:13;;;;;;;29.63;24.35;;;;;;;;;;10191140;28;20065;-58
2022/03/26 06:42:11;;;;;;;21.95;16.38;;;;;;;;;;10188387;28;20084;-59
2022/03/26 06:47:11;;;;;;;21.92;14.75;;;;;;;;;;10190214;28;20538;-58
2022/03/26 06:52:12;;;;;;;17.90;14.73;;;;;;;;;;10191370;28;20069;-59
2022/03/26 06:57:10;;;;;;;20.30;13.43;;;;;;;;;;10194622;28;20470;-57
2022/03/26 07:02:08;;;;;;;22.45;16.25;;;;;;;;;;10183433;28;20084;-59
2022/03/26 07:07:07;;;;;;;35.40;24.58;;;;;;;;;;10191362;28;20072;-59
2022/03/26 07:12:07;;;;;;;26.23;20.42;;;;;;;;;;10165304;28;20479;-58
2022/03/26 07:17:05;;;;;;;23.83;18.77;;;;;;;;;;10160449;28;20420;-59
2022/03/26 07:22:04;;;;;;;24.98;16.40;;;;;;;;;;10159194;28;20062;-58
2022/03/26 07:27:03;;;;;;;32.25;21.02;;;;;;;;;;10173892;28;20074;-58
2022/03/26 07:32:02;;;;;;;14.90;12.90;;;;;;;;;;10181321;28;20368;-58
2022/03/26 07:37:01;;;;;;;17.83;15.27;;;;;;;;;;10179304;28;20084;-57
2022/03/26 07:42:00;;;;;;;16.00;12.02;;;;;;;;;;10189141;28;20069;-58
2022/03/26 07:46:58;;;;;;;22.50;13.13;;;;;;;;;;10188115;28;20070;-58
2022/03/26 07:51:58;;;;;;;18.48;11.85;;;;;;;;;;10188499;28;20065;-60
2022/03/26 07:56:56;;;;;;;18.38;11.63;;;;;;;;;;10188728;28;20482;-58
2022/03/26 08:01:55;;;;;;;19.65;13.52;;;;;;;;;;10185855;28;20073;-57
2022/03/26 08:06:53;;;;;;;14.88;11.65;;;;;;;;;;10186794;28;20088;-58
2022/03/26 08:11:53;;;;;;;16.10;12.73;;;;;;;;;;10185617;28;20042;-56
2022/03/26 08:16:52;;;;;;;26.67;18.70;;;;;;;;;;10183333;28;20074;-59
2022/03/26 08:21:50;;;;;;;17.98;13.00;;;;;;;;;;10188443;28;20062;-58
2022/03/26 08:26:50;;;;;;;19.45;13.77;;;;;;;;;;10186756;28;20077;-59
2022/03/26 08:31:50;;;;;;;15.75;12.43;;;;;;;;;;10186998;28;20089;-60
2022/03/26 08:36:48;;;;;;;16.52;12.95;;;;;;;;;;10189280;28;20073;-58
2022/03/26 08:41:46;;;;;;;14.90;10.00;;;;;;;;;;10181660;28;20084;-58
2022/03/26 08:46:45;;;;;;;16.50;14.00;;;;;;;;;;10186903;28;20069;-58
2022/03/26 08:51:44;;;;;;;14.38;12.23;;;;;;;;;;10187927;28;20042;-58
2022/03/26 08:56:43;;;;;;;14.07;12.38;;;;;;;;;;10187340;28;20471;-59
2022/03/26 09:01:41;;;;;;;20.02;13.43;;;;;;;;;;10186187;28;20093;-58
2022/03/26 09:06:40;;;;;;;19.20;13.70;;;;;;;;;;10186521;28;20081;-58
2022/03/26 09:11:39;;;;;;;17.30;13.63;;;;;;;;;;10193165;28;20069;-58
2022/03/26 09:16:38;;;;;;;17.52;14.70;;;;;;;;;;10190559;28;20630;-58
2022/03/26 09:21:36;;;;;;;11.68;10.30;;;;;;;;;;10190210;28;20073;-58
2022/03/26 09:26:35;;;;;;;17.48;13.20;;;;;;;;;;10185975;28;20309;-59
2022/03/26 09:31:34;;;;;;;11.73;9.50;;;;;;;;;;10186912;28;20077;-58
2022/03/26 09:36:33;;;;;;;12.50;10.13;;;;;;;;;;10187682;28;20176;-60
2022/03/26 09:41:32;;;;;;;11.07;9.35;;;;;;;;;;10183105;28;20080;-59
2022/03/26 09:46:31;;;;;;;19.17;13.10;;;;;;;;;;10185958;28;20086;-60
2022/03/26 09:51:32;;;;;;;13.20;10.88;;;;;;;;;;10184139;28;20074;-59
2022/03/26 09:56:31;;;;;;;18.10;13.20;;;;;;;;;;10184261;28;20077;-58
2022/03/26 10:01:29;;;;;;;18.15;15.38;;;;;;;;;;10188260;28;20506;-55
2022/03/26 10:06:28;;;;;;;12.23;10.52;;;;;;;;;;10188301;28;20065;-60
2022/03/26 10:11:31;;;;;;;16.77;10.27;;;;;;;;;;10191137;28;20534;-59
2022/03/26 10:16:30;;;;;;;10.18;9.18;;;;;;;;;;10186549;28;20058;-59
2022/03/26 10:21:28;;;;;;;13.98;8.55;;;;;;;;;;10186232;28;20092;-57
2022/03/26 10:26:28;;;;;;;10.70;9.23;;;;;;;;;;10189536;28;20081;-57
2022/03/26 10:36:43;;;;;;;14.95;9.15;;;;;;;;;;10187214;28;20077;-58
2022/03/26 10:41:43;;;;;;;10.45;8.45;;;;;;;;;;10194504;28;20368;-57
2022/03/26 10:46:44;;;;;;;11.35;9.18;;;;;;;;;;10194456;28;20108;-58
2022/03/26 10:51:42;;;;;;;12.13;9.95;;;;;;;;;;10190197;28;20062;-58
2022/03/26 10:56:41;;;;;;;16.58;11.85;;;;;;;;;;10190221;28;20554;-58
2022/03/26 11:01:41;;;;;;;20.73;10.77;;;;;;;;;;10189046;28;20085;-58
2022/03/26 11:06:41;;;;;;;19.90;11.27;;;;;;;;;;10185076;28;20086;-58
2022/03/26 11:11:41;;;;;;;10.85;8.52;;;;;;;;;;10188948;28;20085;-58
2022/03/26 11:16:50;;;;;;;13.20;9.68;;;;;;;;;;10187988;28;20084;-58
2022/03/26 11:22:04;;;;;;;10.55;9.45;;;;;;;;;;10188912;28;20073;-59
2022/03/26 11:27:14;;;;;;;16.02;10.25;;;;;;;;;;10187818;28;20077;-58
2022/03/26 11:32:20;;;;;;;12.27;9.05;;;;;;;;;;10187308;28;20077;-59
2022/03/26 11:37:22;;;;;;;14.40;8.70;;;;;;;;;;10187324;28;20480;-57
2022/03/26 11:42:24;;;;;;;19.92;9.95;;;;;;;;;;10186623;28;20515;-59
2022/03/26 11:52:45;;;;;;;28.25;10.25;;;;;;;;;;10173840;28;20077;-59
2022/03/26 11:57:43;;;;;;;58.58;13.02;;;;;;;;;;10173656;28;20153;-59
2022/03/26 12:02:47;;;;;;;12.73;9.20;;;;;;;;;;10181117;28;20084;-58
2022/03/26 12:07:45;;;;;;;12.57;9.55;;;;;;;;;;10180054;28;20061;-59
2022/03/26 12:12:47;;;;;;;12.07;9.50;;;;;;;;;;10179057;28;20081;-60
2022/03/26 12:17:48;;;;;;;16.50;12.88;;;;;;;;;;10186435;28;20078;-59
2022/03/26 12:22:49;;;;;;;15.57;10.82;;;;;;;;;;10186605;28;20080;-58
2022/03/26 12:27:47;;;;;;;17.45;11.43;;;;;;;;;;10182171;28;20072;-56
2022/03/26 12:32:47;;;;;;;17.02;11.25;;;;;;;;;;10183809;28;20070;-58
2022/03/26 12:37:49;;;;;;;16.63;9.82;;;;;;;;;;10187017;28;20065;-57
2022/03/26 12:42:52;;;;;;;11.68;8.68;;;;;;;;;;10174122;28;20070;-60
2022/03/26 12:47:52;;;;;;;15.88;11.75;;;;;;;;;;10185640;28;20431;-59
2022/03/26 12:52:50;;;;;;;10.63;8.60;;;;;;;;;;10189990;28;20077;-58
2022/03/26 13:03:08;;;;;;;14.07;9.75;;;;;;;;;;10177635;28;20073;-57
2022/03/26 13:08:11;;;;;;;14.38;12.10;;;;;;;;;;10175469;28;20085;-58
2022/03/26 13:13:10;;;;;;;12.82;8.32;;;;;;;;;;10195605;28;20073;-58
2022/03/26 13:18:10;;;;;;;17.00;12.15;;;;;;;;;;10190308;28;20077;-58
2022/03/26 13:23:10;;;;;;;16.55;10.77;;;;;;;;;;10191334;28;20072;-59
2022/03/26 13:28:15;;;;;;;13.70;10.45;;;;;;;;;;10192957;28;20100;-59
2022/03/26 13:33:19;;;;;;;14.07;9.82;;;;;;;;;;10196277;28;20276;-59
2022/03/26 13:38:17;;;;;;;13.80;11.07;;;;;;;;;;10195422;28;20088;-58
2022/03/26 13:43:15;;;;;;;16.02;10.23;;;;;;;;;;10182810;28;20050;-59
2022/03/26 13:48:14;;;;;;;14.35;10.45;;;;;;;;;;10182001;28;20541;-58
2022/03/26 13:53:19;;;;;;;13.18;10.32;;;;;;;;;;10184538;28;20062;-58
2022/03/26 13:58:22;;;;;;;14.45;12.10;;;;;;;;;;10190413;28;20081;-58
2022/03/26 14:03:23;;;;;;;14.55;9.90;;;;;;;;;;10188919;28;20077;-58
2022/03/26 14:08:23;;;;;;;21.35;13.73;;;;;;;;;;10192710;28;20065;-57
2022/03/26 14:13:22;;;;;;;19.08;12.43;;;;;;;;;;10192418;28;20084;-58
2022/03/26 14:18:21;;;;;;;26.48;14.18;;;;;;;;;;10192939;28;20519;-60
2022/03/26 14:23:20;;;;;;;16.92;8.43;;;;;;;;;;10178203;28;20586;-59
2022/03/26 14:28:20;;;;;;;19.05;12.00;;;;;;;;;;10189749;28;20084;-58
2022/03/26 14:33:18;;;;;;;12.57;9.55;;;;;;;;;;10191751;28;20092;-58
2022/03/26 14:38:18;;;;;;;19.80;10.73;;;;;;;;;;10186358;28;20073;-56
2022/03/26 14:43:16;;;;;;;12.90;9.43;;;;;;;;;;10193837;28;20073;-57
2022/03/26 14:48:16;;;;;;;15.70;10.02;;;;;;;;;;10190806;28;20069;-57
2022/03/26 14:53:15;;;;;;;14.68;10.95;;;;;;;;;;10192070;28;20069;-57
2022/03/26 14:58:13;;;;;;;14.68;11.63;;;;;;;;;;10187037;28;20421;-58
2022/03/26 15:03:11;;;;;;;17.85;11.48;;;;;;;;;;10187401;28;20081;-58
2022/03/26 15:08:11;;;;;;;14.93;10.63;;;;;;;;;;10187704;28;20066;-57
2022/03/26 15:13:10;;;;;;;12.77;10.45;;;;;;;;;;10193192;28;20065;-58
2022/03/26 15:18:08;;;;;;;12.45;10.18;;;;;;;;;;10185357;28;20848;-57
2022/03/26 15:23:06;;;;;;;15.93;12.10;;;;;;;;;;10188908;28;20073;-56
2022/03/26 15:28:08;;;;;;;18.08;11.25;;;;;;;;;;10184221;28;20447;-57
2022/03/26 15:33:06;;;;;;;12.55;10.13;;;;;;;;;;10188501;28;20061;-58
2022/03/26 15:38:05;;;;;;;19.60;10.73;;;;;;;;;;10183042;28;20074;-57
2022/03/26 15:43:03;;;;;;;23.25;15.40;;;;;;;;;;10184005;28;20077;-55
2022/03/26 15:48:03;;;;;;;18.75;11.70;;;;;;;;;;10182953;28;20065;-58
2022/03/26 15:53:01;;;;;;;13.35;9.77;;;;;;;;;;10179421;28;20073;-59
2022/03/26 15:58:02;;;;;;;22.05;13.32;;;;;;;;;;10173271;28;20077;-59
2022/03/26 16:03:00;;;;;;;29.40;18.52;;;;;;;;;;10185497;28;20090;-59
2022/03/26 16:08:00;;;;;;;19.65;12.60;;;;;;;;;;10191049;28;20080;-58
2022/03/26 16:12:59;;;;;;;20.42;14.07;;;;;;;;;;10194743;28;20084;-58
2022/03/26 16:17:57;;;;;;;50.00;26.33;;;;;;;;;;10198520;28;20069;-57
2022/03/26 16:22:55;;;;;;;24.25;15.43;;;;;;;;;;10190816;28;20100;-58
2022/03/26 16:27:55;;;;;;;25.95;18.05;;;;;;;;;;10192115;28;20080;-58
2022/03/26 16:32:53;;;;;;;27.30;18.83;;;;;;;;;;10193778;28;20065;-58
2022/03/26 16:37:52;;;;;;;23.15;15.20;;;;;;;;;;10191602;28;20499;-57
2022/03/26 16:43:01;;;;;;;122.43;67.43;;;;;;;;;;10187345;28;20128;-57
2022/03/26 16:48:00;;;;;;;78.65;52.75;;;;;;;;;;10186732;28;20073;-59
2022/03/26 16:52:59;;;;;;;36.58;26.58;;;;;;;;;;10193730;28;20081;-57
2022/03/26 16:57:59;;;;;;;49.17;28.05;;;;;;;;;;10179200;28;20069;-58
2022/03/26 17:02:59;;;;;;;107.80;57.00;;;;;;;;;;10190936;28;20104;-57
2022/03/26 17:07:58;;;;;;;121.13;65.88;;;;;;;;;;10198212;28;20061;-58
2022/03/26 17:13:02;;;;;;;98.68;51.83;;;;;;;;;;10197476;28;20065;-58
2022/03/26 17:18:00;;;;;;;86.38;59.17;;;;;;;;;;10192948;28;20077;-58
2022/03/26 17:22:58;;;;;;;68.28;47.47;;;;;;;;;;10195818;28;20076;-57
2022/03/26 17:27:57;;;;;;;63.00;39.17;;;;;;;;;;10192926;28;20061;-57
2022/03/26 17:32:59;;;;;;;43.90;30.13;;;;;;;;;;10191346;28;20499;-55
2022/03/26 17:37:57;;;;;;;40.95;28.80;;;;;;;;;;10189397;28;20080;-57
2022/03/26 17:42:55;;;;;;;69.07;42.45;;;;;;;;;;10186408;28;20093;-57
2022/03/26 17:47:54;;;;;;;83.57;55.67;;;;;;;;;;10185176;28;20077;-58
2022/03/26 17:52:53;;;;;;;62.28;40.85;;;;;;;;;;10191724;28;20034;-58
2022/03/26 17:57:52;;;;;;;59.30;39.88;;;;;;;;;;10184566;28;20073;-58
2022/03/26 18:02:50;;;;;;;48.40;31.23;;;;;;;;;;10190028;28;20506;-58
2022/03/26 18:07:48;;;;;;;49.10;34.42;;;;;;;;;;10191469;28;20080;-56
2022/03/26 18:12:48;;;;;;;55.65;34.03;;;;;;;;;;10191628;28;20069;-57
2022/03/26 18:17:46;;;;;;;50.40;29.65;;;;;;;;;;10190903;28;20069;-57
2022/03/26 18:22:44;;;;;;;40.10;25.70;;;;;;;;;;10191049;28;20070;-59
2022/03/26 18:27:43;;;;;;;36.22;24.92;;;;;;;;;;10191004;28;20573;-57
2022/03/26 18:32:42;;;;;;;33.67;23.70;;;;;;;;;;10184314;28;20077;-58
2022/03/26 18:37:41;;;;;;;52.30;34.72;;;;;;;;;;10192716;28;20081;-56
2022/03/26 18:42:40;;;;;;;42.33;27.60;;;;;;;;;;10191798;28;20073;-56
2022/03/26 18:47:39;;;;;;;58.83;33.83;;;;;;;;;;10187028;28;20072;-57
2022/03/26 18:52:39;;;;;;;25.48;16.65;;;;;;;;;;10184294;28;20073;-58
2022/03/26 18:57:37;;;;;;;40.05;22.65;;;;;;;;;;10191005;28;20515;-58
2022/03/26 19:02:36;;;;;;;60.80;33.20;;;;;;;;;;10191785;28;20085;-58
2022/03/26 19:07:34;;;;;;;22.52;15.60;;;;;;;;;;10184285;28;20097;-55
2022/03/26 19:12:34;;;;;;;18.27;14.10;;;;;;;;;;10185245;28;20545;-57
2022/03/26 19:17:34;;;;;;;24.80;14.38;;;;;;;;;;10185303;28;20081;-59
2022/03/26 19:22:32;;;;;;;79.55;44.70;;;;;;;;;;10187491;28;20081;-59
2022/03/26 19:27:30;;;;;;;17.00;11.85;;;;;;;;;;10187742;28;20061;-58
2022/03/26 19:32:30;;;;;;;16.27;10.48;;;;;;;;;;10189780;28;20093;-59
2022/03/26 19:37:29;;;;;;;15.38;11.20;;;;;;;;;;10183384;28;20110;-59
2022/03/26 19:42:27;;;;;;;17.13;11.25;;;;;;;;;;10184234;28;20081;-59
2022/03/26 19:47:26;;;;;;;18.63;11.75;;;;;;;;;;10184626;28;20061;-59
2022/03/26 19:52:25;;;;;;;15.98;13.38;;;;;;;;;;10184587;28;20078;-57
2022/03/26 19:57:24;;;;;;;18.10;11.85;;;;;;;;;;10185242;28;20069;-59
2022/03/26 20:02:22;;;;;;;22.70;15.50;;;;;;;;;;10187675;28;20472;-58
2022/03/26 20:07:21;;;;;;;22.60;14.55;;;;;;;;;;10183100;28;20073;-59
2022/03/26 20:12:21;;;;;;;20.08;13.50;;;;;;;;;;10187396;28;20081;-59
2022/03/26 20:22:35;;;;;;;;;;;;;;;;;;10191434;28;20070;-59
2022/03/26 20:27:34;;;;;;;18.80;12.60;;;;;;;;;;10191425;28;19933;-60
2022/03/26 20:32:33;;;;;;;20.77;14.95;;;;;;;;;;10188760;28;20537;-59
2022/03/26 20:37:32;;;;;;;23.52;15.35;;;;;;;;;;10187679;28;20072;-58
2022/03/26 20:42:30;;;;;;;28.92;16.73;;;;;;;;;;10190339;28;20073;-59
2022/03/26 20:47:30;;;;;;;35.05;19.38;;;;;;;;;;10182619;28;20503;-58
2022/03/26 20:52:28;;;;;;;24.65;14.43;;;;;;;;;;10182281;28;20088;-59
2022/03/26 20:57:27;;;;;;;24.40;14.73;;;;;;;;;;10180389;28;20076;-59
2022/03/26 21:02:25;;;;;;;22.92;14.18;;;;;;;;;;10194373;28;20081;-58
2022/03/26 21:07:25;;;;;;;20.05;13.98;;;;;;;;;;10196681;28;20066;-58
2022/03/26 21:12:23;;;;;;;18.35;12.00;;;;;;;;;;10192081;28;20502;-59
2022/03/26 21:17:21;;;;;;;21.40;11.50;;;;;;;;;;10192971;28;20073;-60
2022/03/26 21:22:20;;;;;;;25.45;13.68;;;;;;;;;;10191182;28;20510;-60
2022/03/26 21:27:20;;;;;;;14.60;11.80;;;;;;;;;;10197492;28;20088;-59
2022/03/26 21:32:18;;;;;;;17.52;11.98;;;;;;;;;;10195468;28;20077;-59
2022/03/26 21:37:17;;;;;;;17.20;10.90;;;;;;;;;;10193582;28;20112;-59
2022/03/26 21:42:15;;;;;;;15.80;10.93;;;;;;;;;;10186188;28;20081;-59
2022/03/26 21:47:15;;;;;;;17.17;11.35;;;;;;;;;;10187824;28;20073;-60
2022/03/26 21:52:14;;;;;;;18.42;11.80;;;;;;;;;;10180621;28;20084;-59
2022/03/26 21:57:12;;;;;;;14.60;10.48;;;;;;;;;;10186180;28;20069;-59
2022/03/26 22:02:11;;;;;;;11.77;9.82;;;;;;;;;;10183964;28;20089;-58
2022/03/26 22:07:10;;;;;;;17.05;10.25;;;;;;;;;;10189707;28;20070;-60
2022/03/26 22:12:09;;;;;;;14.63;9.57;;;;;;;;;;10192096;28;20080;-60
2022/03/26 22:17:07;;;;;;;12.55;9.25;;;;;;;;;;10195628;28;20053;-60
2022/03/26 22:22:06;;;;;;;13.32;11.20;;;;;;;;;;10195778;28;20077;-59
2022/03/26 22:27:07;;;;;;;13.38;9.85;;;;;;;;;;10190019;28;20094;-59
2022/03/26 22:32:06;;;;;;;12.60;10.20;;;;;;;;;;10190323;28;20065;-58
2022/03/26 22:37:24;;;;;;;12.20;9.32;;;;;;;;;;10187708;28;20076;-58
2022/03/26 22:42:24;;;;;;;13.98;9.63;;;;;;;;;;10188864;28;20145;-59
2022/03/26 22:47:25;;;;;;;13.93;9.60;;;;;;;;;;10189606;28;20511;-59
2022/03/26 22:52:23;;;;;;;12.90;9.52;;;;;;;;;;10190267;28;20507;-59
2022/03/26 22:57:21;;;;;;;17.25;8.88;;;;;;;;;;10189578;28;20081;-59
2022/03/26 23:02:21;;;;;;;12.57;9.18;;;;;;;;;;10187577;28;20085;-59
2022/03/26 23:07:19;;;;;;;17.55;10.95;;;;;;;;;;10189358;28;20076;-59
2022/03/26 23:12:18;;;;;;;12.07;9.30;;;;;;;;;;10178737;28;20081;-59
2022/03/26 23:17:17;;;;;;;12.02;9.13;;;;;;;;;;10188872;28;20069;-59
2022/03/26 23:22:17;;;;;;;13.23;10.00;;;;;;;;;;10187633;28;20471;-59
2022/03/26 23:27:16;;;;;;;13.55;9.85;;;;;;;;;;10187884;28;20077;-58
2022/03/26 23:32:14;;;;;;;13.95;9.80;;;;;;;;;;10190043;28;20065;-58
2022/03/26 23:37:12;;;;;;;13.07;10.00;;;;;;;;;;10189983;28;20068;-59
2022/03/26 23:42:12;;;;;;;12.02;9.25;;;;;;;;;;10187825;28;20088;-60
2022/03/26 23:47:11;;;;;;;12.45;10.07;;;;;;;;;;10185018;28;20518;-59
2022/03/26 23:52:09;;;;;;;11.75;9.05;;;;;;;;;;10187960;28;20518;-59
2022/03/26 23:57:08;;;;;;;15.98;10.45;;;;;;;;;;10188903;28;20077;-59
